Zearing, IA (50278)

7:41 PM CST on December 27, 2014 (GMT -0600)
Saint Anthony West | Change Station
CLOSE
Current Station
Personal Weather Station
Location: St. Anthony, IA
Elevation: 1040 ft
Nearby Weather Stations

Elev 1040 ft 42.12 °N, 93.20 °W | Updated 9 minutes ago

Clear
Clear
20.1 °F
Feels Like 9 °F
N
9.4
Wind Variable Wind from West

Today
High -- | Low -- °F
--% Chance of Precip.
Yesterday
High -- | Low -- °F
Precip. -- in
7:40 AM 4:47 PM
Waxing Crescent, 42% visible
Pressure 30.25 in
Visibility 10.0 miles
Clouds Clear
Windchill 9 °F
Dew Point 16 °F
Humidity 85%
Rainfall 0.00 in
Snow Depth Not available.
UV 0 out of 12
Pollen .10 out of 12
Air Quality Not available.
Flu Activity Not available.
METAR KAMW 280053Z AUTO 29006KT 10SM CLR M06/M09 A3022 RMK AO2 SLP243 T10611089

More Conditions Fewer Conditions

Pressure 30.25 in
Visibility 10.0 miles
Clouds Clear
Windchill 9 °F
Dew Point 16 °F
Humidity 85%
Rainfall 0.00 in
Snow Depth Not available.
UV 0 out of 12
Pollen .10 out of 12
Air Quality Not available.
Flu Activity Not available.
METAR KAMW 280053Z AUTO 29006KT 10SM CLR M06/M09 A3022 RMK AO2 SLP243 T10611089

More Conditions Fewer Conditions

10-Day Weather Forecast

Almanac

Astronomy

Dec. 27, 2014 Rise Set
Actual Time
Civil Twilight
Nautical Twilight
Astronomical Twilight
Moon
Length of Visible Light
Length of Day
Tomorrow will be .
, % of the Moon is Illuminated

Today's Extremes

State Highs State Lows

Community

WunderPhotos

Upload Photos

1,781,124 photos uploaded!

WunderBlogs® & News

Nearby

Air Quality

  Air Quality AQ Index Pollutant
Not available.

Snow Depth

Station Depth Elevation

Earthquake Activity

City Distance Mag. Time & Date
Minimum magnitude displayed is 2.5.

Coastal Water Temperatures

Place Temperature

Nearby Weather Stations